createdAt,value
2023-12-27T00:05:43.165Z,15.60
2023-12-27T00:15:43.146Z,15.60
2023-12-27T00:25:43.139Z,14.10
2023-12-27T00:35:43.224Z,15.90
2023-12-27T00:45:43.148Z,15.50
2023-12-27T00:55:43.159Z,14.70
2023-12-27T01:05:43.148Z,14.50
2023-12-27T01:15:43.169Z,15.40
2023-12-27T01:25:43.190Z,16.20
2023-12-27T01:35:43.173Z,16.40
2023-12-27T01:45:43.187Z,15.80
2023-12-27T01:55:43.164Z,15.00
2023-12-27T02:05:43.239Z,15.50
2023-12-27T02:15:43.276Z,15.50
2023-12-27T02:25:43.177Z,16.30
2023-12-27T02:35:43.197Z,17.10
2023-12-27T02:45:43.218Z,15.90
2023-12-27T02:55:43.203Z,17.30
2023-12-27T03:05:43.165Z,16.80
2023-12-27T03:15:43.203Z,17.30
2023-12-27T03:25:43.294Z,17.20
2023-12-27T03:35:43.200Z,17.40
2023-12-27T03:45:43.210Z,17.60
2023-12-27T03:55:43.205Z,19.10
2023-12-27T04:05:43.240Z,18.50
2023-12-27T04:15:43.302Z,16.20
2023-12-27T04:25:43.260Z,17.30
2023-12-27T04:35:43.258Z,20.40
2023-12-27T04:45:43.304Z,16.20
2023-12-27T04:55:43.233Z,15.80
2023-12-27T05:05:43.299Z,17.70
2023-12-27T05:15:43.251Z,17.10
2023-12-27T05:25:43.231Z,17.90
2023-12-27T05:35:43.227Z,17.50
2023-12-27T05:45:43.262Z,15.10
2023-12-27T05:55:43.241Z,17.10
2023-12-27T06:15:43.280Z,16.00
2023-12-27T06:25:43.261Z,16.40
2023-12-27T06:35:43.238Z,16.10
2023-12-27T06:45:43.314Z,16.10
2023-12-27T06:55:43.283Z,15.50
2023-12-27T07:05:43.360Z,16.10
2023-12-27T07:15:43.414Z,16.00
2023-12-27T07:25:43.275Z,17.30
2023-12-27T07:35:43.289Z,26.50
2023-12-27T07:45:43.338Z,18.40
2023-12-27T07:55:43.290Z,29.00
2023-12-27T08:05:43.318Z,18.80
2023-12-27T08:15:43.325Z,19.30
2023-12-27T08:25:43.314Z,16.40
2023-12-27T08:35:43.332Z,16.80
2023-12-27T08:45:43.345Z,18.50
2023-12-27T08:55:43.310Z,16.80
2023-12-27T09:05:43.313Z,19.40
2023-12-27T09:15:43.393Z,17.50
2023-12-27T09:25:43.314Z,37.00
2023-12-27T09:35:43.304Z,20.70
2023-12-27T09:45:43.315Z,18.00
2023-12-27T09:55:43.323Z,22.20
2023-12-27T10:05:43.432Z,19.80
2023-12-27T10:15:43.327Z,18.50
2023-12-27T10:25:43.333Z,18.40
2023-12-27T10:35:43.496Z,18.60
2023-12-27T10:45:43.601Z,17.30
2023-12-27T10:55:43.344Z,9.60
2023-12-27T11:05:43.381Z,14.40
2023-12-27T11:15:43.380Z,15.30
2023-12-27T11:25:43.365Z,19.10
2023-12-27T11:35:43.364Z,15.80
2023-12-27T11:45:43.412Z,19.90
2023-12-27T11:55:43.413Z,20.80
2023-12-27T12:05:43.564Z,9.00
2023-12-27T12:15:43.437Z,8.70
2023-12-27T12:25:43.395Z,8.60
2023-12-27T12:35:43.396Z,8.00
2023-12-27T12:45:43.420Z,10.00
2023-12-27T12:55:43.406Z,13.10
2023-12-27T13:05:43.403Z,8.90
2023-12-27T13:15:43.535Z,17.60
2023-12-27T13:25:43.400Z,9.00
2023-12-27T13:35:43.420Z,12.30
2023-12-27T13:45:43.424Z,11.60
2023-12-27T13:55:43.421Z,16.40
2023-12-27T14:05:43.479Z,16.10
2023-12-27T14:15:43.443Z,18.60
2023-12-27T14:25:43.417Z,16.60
2023-12-27T14:35:43.438Z,16.50
2023-12-27T14:45:43.501Z,17.40
2023-12-27T14:55:43.432Z,19.60
2023-12-27T15:05:43.485Z,19.10
2023-12-27T15:15:43.478Z,15.30
2023-12-27T15:25:43.546Z,15.60
2023-12-27T15:35:43.456Z,15.70
2023-12-27T15:45:43.664Z,16.40
2023-12-27T15:55:43.472Z,15.80
2023-12-27T16:05:43.516Z,16.50
2023-12-27T16:15:43.591Z,27.10
2023-12-27T16:25:43.504Z,42.40
2023-12-27T16:35:43.496Z,33.80
2023-12-27T16:45:43.606Z,22.50
2023-12-27T16:55:43.510Z,25.20
2023-12-27T17:05:43.540Z,22.10
2023-12-27T17:15:43.589Z,21.20
2023-12-27T17:25:43.581Z,23.30
2023-12-27T17:35:43.547Z,28.30
2023-12-27T17:45:43.519Z,22.20
2023-12-27T17:55:43.523Z,24.80
2023-12-27T18:05:43.679Z,23.50
2023-12-27T18:15:43.602Z,27.50
2023-12-27T18:25:43.537Z,25.60
2023-12-27T18:35:43.521Z,30.00
2023-12-27T18:45:43.556Z,28.50
2023-12-27T18:55:43.534Z,28.00
2023-12-27T19:05:43.537Z,32.60
2023-12-27T19:15:43.569Z,32.60
2023-12-27T19:25:43.533Z,29.50
2023-12-27T19:35:43.545Z,31.40
2023-12-27T19:45:43.580Z,37.30
2023-12-27T19:55:43.551Z,34.90
2023-12-27T20:05:43.896Z,33.90
2023-12-27T20:15:48.362Z,32.50
2023-12-27T20:25:43.535Z,30.80
2023-12-27T20:35:43.557Z,37.90
2023-12-27T20:45:43.650Z,35.50
2023-12-27T20:55:43.559Z,31.10
2023-12-27T21:05:43.631Z,34.30
2023-12-27T21:15:43.619Z,29.50
2023-12-27T21:25:43.551Z,32.30
2023-12-27T21:35:43.589Z,32.40
2023-12-27T21:45:43.610Z,24.50
2023-12-27T21:55:43.596Z,34.60
2023-12-27T22:05:43.721Z,25.40
2023-12-27T22:15:48.814Z,21.40
2023-12-27T22:25:43.637Z,24.10
2023-12-27T22:35:43.614Z,23.40
2023-12-27T22:55:43.595Z,29.80
2023-12-27T23:05:43.691Z,32.00
2023-12-27T23:15:43.640Z,27.00
2023-12-27T23:25:43.660Z,30.70
2023-12-27T23:35:43.619Z,25.80
2023-12-27T23:45:43.658Z,34.40
2023-12-27T23:55:43.645Z,31.80
